createdAt,value
2023-05-24T00:00:06.385Z,4.00
2023-05-24T00:02:35.346Z,3.83
2023-05-24T00:05:02.688Z,5.07
2023-05-24T00:07:31.928Z,5.03
2023-05-24T00:09:59.185Z,3.33
2023-05-24T00:12:26.424Z,4.25
2023-05-24T00:14:53.481Z,4.47
2023-05-24T00:17:20.735Z,4.60
2023-05-24T00:19:48.051Z,4.30
2023-05-24T00:22:15.277Z,4.55
2023-05-24T00:24:42.516Z,4.22
2023-05-24T00:27:09.736Z,4.47
2023-05-24T00:29:36.834Z,4.53
2023-05-24T00:32:04.185Z,4.72
2023-05-24T00:34:31.432Z,4.35
2023-05-24T00:36:58.771Z,4.93
2023-05-24T00:39:27.334Z,5.00
2023-05-24T00:41:54.422Z,5.10
2023-05-24T00:44:21.570Z,5.00
2023-05-24T00:46:50.016Z,5.03
2023-05-24T00:49:17.748Z,4.70
2023-05-24T00:51:46.498Z,5.00
2023-05-24T00:54:15.236Z,5.00
2023-05-24T00:56:45.500Z,5.03
2023-05-24T00:59:13.716Z,5.05
2023-05-24T01:01:42.134Z,5.35
2023-05-24T01:04:09.481Z,5.82
2023-05-24T01:06:57.900Z,4.95
2023-05-24T01:09:44.198Z,5.85
2023-05-24T01:12:33.182Z,5.18
2023-05-24T01:15:41.847Z,5.47
2023-05-24T01:18:22.286Z,5.32
2023-05-24T01:21:02.773Z,5.72
2023-05-24T01:23:47.821Z,5.63
2023-05-24T01:26:40.206Z,8.25
2023-05-24T01:29:08.416Z,6.10
2023-05-24T01:31:38.009Z,7.90
2023-05-24T01:34:05.199Z,6.45
2023-05-24T01:36:32.332Z,6.43
2023-05-24T01:38:59.510Z,6.78
2023-05-24T01:41:53.201Z,6.60
2023-05-24T01:44:29.462Z,7.13
2023-05-24T01:47:22.291Z,6.30
2023-05-24T01:49:54.483Z,6.43
2023-05-24T01:52:27.826Z,5.90
2023-05-24T01:54:58.355Z,5.80
2023-05-24T01:57:27.482Z,6.65
2023-05-24T01:59:56.040Z,6.30
2023-05-24T02:02:23.425Z,7.40
2023-05-24T02:04:50.684Z,7.93
2023-05-24T02:07:17.807Z,6.57
2023-05-24T02:09:44.975Z,7.63
2023-05-24T02:12:13.986Z,7.65
2023-05-24T02:14:42.970Z,6.97
2023-05-24T02:17:10.662Z,7.47
2023-05-24T02:19:38.085Z,10.70
2023-05-24T02:22:07.447Z,10.52
2023-05-24T02:24:35.125Z,10.27
2023-05-24T02:27:02.905Z,9.57
2023-05-24T02:29:30.229Z,8.52
2023-05-24T02:31:57.713Z,9.27
2023-05-24T02:34:24.901Z,8.45
2023-05-24T02:36:54.398Z,9.20
2023-05-24T02:39:21.660Z,7.70
2023-05-24T02:41:48.910Z,11.70
2023-05-24T02:44:16.117Z,8.35
2023-05-24T02:46:43.297Z,7.22
2023-05-24T02:49:10.656Z,6.60
2023-05-24T02:51:38.089Z,7.88
2023-05-24T02:54:05.277Z,6.32
2023-05-24T02:56:32.496Z,7.40
2023-05-24T02:58:59.892Z,7.43
2023-05-24T03:01:29.855Z,6.30
2023-05-24T03:03:58.956Z,6.40
2023-05-24T03:06:26.487Z,6.15
2023-05-24T03:08:53.799Z,5.90
2023-05-24T03:11:22.449Z,5.53
2023-05-24T03:13:50.627Z,6.00
2023-05-24T03:16:18.503Z,5.60
2023-05-24T03:18:50.867Z,6.32
2023-05-24T03:21:20.972Z,5.97
2023-05-24T03:26:16.459Z,5.90
2023-05-24T03:28:44.529Z,6.20
2023-05-24T03:31:12.616Z,5.05
2023-05-24T03:33:40.066Z,6.13
2023-05-24T03:36:07.358Z,5.95
2023-05-24T03:38:34.662Z,5.95
2023-05-24T03:41:01.917Z,6.18
2023-05-24T03:43:29.600Z,6.22
2023-05-24T03:46:00.706Z,5.97
2023-05-24T03:48:27.874Z,6.57
2023-05-24T03:50:55.182Z,5.75
2023-05-24T03:53:23.321Z,6.90
2023-05-24T03:55:51.789Z,6.65
2023-05-24T03:58:19.343Z,5.85
2023-05-24T04:00:46.882Z,5.50
2023-05-24T04:03:14.990Z,5.88
2023-05-24T04:05:42.425Z,5.75
2023-05-24T04:08:11.422Z,6.55
2023-05-24T04:10:39.302Z,6.18
2023-05-24T04:13:06.891Z,5.90
2023-05-24T04:15:38.120Z,5.20
2023-05-24T04:18:05.822Z,6.50
2023-05-24T04:20:35.928Z,4.88
2023-05-24T04:23:03.443Z,4.78
2023-05-24T04:25:33.538Z,7.85
2023-05-24T04:28:02.664Z,5.35
2023-05-24T04:30:32.611Z,6.35
2023-05-24T04:32:59.973Z,5.07
2023-05-24T04:35:30.333Z,6.68
2023-05-24T04:37:59.845Z,6.00
2023-05-24T04:40:27.323Z,6.00
2023-05-24T04:42:54.467Z,5.93
2023-05-24T04:45:21.695Z,5.15
2023-05-24T04:47:48.841Z,6.38
2023-05-24T04:50:16.184Z,5.68
2023-05-24T04:52:43.369Z,8.13
2023-05-24T04:55:10.750Z,8.15
2023-05-24T04:57:37.925Z,5.13
2023-05-24T05:00:07.520Z,6.13
2023-05-24T05:02:35.017Z,5.78
2023-05-24T05:05:02.287Z,5.78
2023-05-24T05:07:29.847Z,5.97
2023-05-24T05:09:57.129Z,6.30
2023-05-24T05:12:24.303Z,6.00
2023-05-24T05:14:51.480Z,5.90
2023-05-24T05:17:18.688Z,5.35
2023-05-24T05:19:45.958Z,5.35
2023-05-24T05:22:13.070Z,5.53
2023-05-24T05:24:40.273Z,5.95
2023-05-24T05:27:10.339Z,5.72
2023-05-24T05:29:41.699Z,5.70
2023-05-24T05:32:09.100Z,5.70
2023-05-24T05:34:36.232Z,5.50
2023-05-24T05:37:03.415Z,6.10
2023-05-24T05:39:32.222Z,5.63
2023-05-24T05:41:59.901Z,6.30
2023-05-24T05:44:27.001Z,5.35
2023-05-24T05:46:54.379Z,5.55
2023-05-24T05:49:21.711Z,6.18
2023-05-24T05:51:49.256Z,4.90
2023-05-24T05:54:18.532Z,5.18
2023-05-24T05:56:48.037Z,5.03
2023-05-24T05:59:16.135Z,5.40
2023-05-24T06:01:47.220Z,6.07
2023-05-24T06:04:14.874Z,5.72
2023-05-24T06:06:42.533Z,4.22
2023-05-24T06:09:09.667Z,4.85
2023-05-24T06:11:36.913Z,3.80
2023-05-24T06:14:04.059Z,5.55
2023-05-24T06:16:32.707Z,5.95
2023-05-24T06:19:05.809Z,5.80
2023-05-24T06:21:34.109Z,5.20
2023-05-24T06:24:02.794Z,5.30
2023-05-24T06:26:30.324Z,5.10
2023-05-24T06:28:57.506Z,5.50
2023-05-24T06:31:24.714Z,5.72
2023-05-24T06:34:02.726Z,6.00
2023-05-24T06:36:34.290Z,6.05
2023-05-24T06:39:01.833Z,5.40
2023-05-24T06:41:28.964Z,5.35
2023-05-24T06:43:56.129Z,6.50
2023-05-24T06:46:23.337Z,6.65
2023-05-24T06:48:50.714Z,7.15
2023-05-24T06:51:17.928Z,5.88
2023-05-24T06:53:45.071Z,6.18
2023-05-24T06:56:12.208Z,5.30
2023-05-24T06:58:39.390Z,6.15
2023-05-24T07:01:06.520Z,5.57
2023-05-24T07:03:34.176Z,6.32
2023-05-24T07:06:01.807Z,5.95
2023-05-24T07:08:29.050Z,6.88
2023-05-24T07:10:57.105Z,5.53
2023-05-24T07:13:24.481Z,6.88
2023-05-24T07:15:51.629Z,5.75
2023-05-24T07:18:18.820Z,6.43
2023-05-24T07:20:46.234Z,6.20
2023-05-24T07:23:16.791Z,7.25
2023-05-24T07:25:44.040Z,6.60
2023-05-24T07:28:11.398Z,6.20
2023-05-24T07:30:39.512Z,6.57
2023-05-24T07:33:06.819Z,6.07
2023-05-24T07:35:33.981Z,6.78
2023-05-24T07:38:01.183Z,6.53
2023-05-24T07:40:28.364Z,6.50
2023-05-24T07:42:55.646Z,6.43
2023-05-24T07:45:23.125Z,6.35
2023-05-24T07:47:54.507Z,6.38
2023-05-24T07:50:24.074Z,6.13
2023-05-24T07:52:51.560Z,6.43
2023-05-24T07:55:18.846Z,5.88
2023-05-24T07:57:47.850Z,7.93
2023-05-24T08:00:16.518Z,6.22
2023-05-24T08:02:46.617Z,4.60
2023-05-24T08:05:15.262Z,5.25
2023-05-24T08:07:42.744Z,6.45
2023-05-24T08:10:13.976Z,5.57
2023-05-24T08:12:42.205Z,6.97
2023-05-24T08:15:09.720Z,7.05
2023-05-24T08:17:39.788Z,7.55
2023-05-24T08:20:13.807Z,7.57
2023-05-24T08:22:41.793Z,7.32
2023-05-24T08:25:09.956Z,7.97
2023-05-24T08:27:37.241Z,7.65
2023-05-24T08:30:04.779Z,6.32
2023-05-24T08:32:34.754Z,10.40
2023-05-24T08:35:18.366Z,7.68
2023-05-24T08:37:48.256Z,6.47
2023-05-24T08:40:15.631Z,5.65
2023-05-24T08:42:42.901Z,5.93
2023-05-24T08:45:14.634Z,5.82
2023-05-24T08:47:42.694Z,5.90
2023-05-24T08:50:10.817Z,5.68
2023-05-24T08:52:39.901Z,6.20
2023-05-24T08:55:07.930Z,5.32
2023-05-24T08:57:39.717Z,5.35
2023-05-24T09:00:13.009Z,5.32
2023-05-24T09:02:42.589Z,5.50
2023-05-24T09:05:16.535Z,4.90
2023-05-24T09:07:45.447Z,4.60
2023-05-24T09:10:13.457Z,4.43
2023-05-24T09:12:45.823Z,3.70
2023-05-24T09:15:13.386Z,4.15
2023-05-24T09:17:43.407Z,2.97
2023-05-24T09:20:11.988Z,3.85
2023-05-24T09:22:42.536Z,4.22
2023-05-24T09:25:13.104Z,4.05
2023-05-24T09:27:40.437Z,4.28
2023-05-24T09:30:12.897Z,4.30
2023-05-24T09:32:41.458Z,5.15
2023-05-24T09:35:10.208Z,6.10
2023-05-24T09:37:40.717Z,7.53
2023-05-24T09:40:20.833Z,9.18
2023-05-24T09:42:51.734Z,5.10
2023-05-24T09:45:19.187Z,5.68
2023-05-24T09:47:46.540Z,5.85
2023-05-24T09:50:17.529Z,5.10
2023-05-24T09:52:45.500Z,5.05
2023-05-24T09:55:17.658Z,5.30
2023-05-24T09:57:50.575Z,5.38
2023-05-24T10:00:27.309Z,5.35
2023-05-24T10:03:09.239Z,4.90
2023-05-24T10:05:37.144Z,5.15
2023-05-24T10:08:09.121Z,5.90
2023-05-24T10:10:36.909Z,6.97
2023-05-24T10:13:04.943Z,5.43
2023-05-24T10:15:32.036Z,5.68
2023-05-24T10:18:01.955Z,5.90
2023-05-24T10:20:31.568Z,6.35
2023-05-24T10:23:04.151Z,5.85
2023-05-24T10:25:33.754Z,5.30
2023-05-24T10:28:12.506Z,4.95
2023-05-24T10:30:58.937Z,6.07
2023-05-24T10:33:26.632Z,4.95
2023-05-24T10:35:54.838Z,4.55
2023-05-24T10:38:23.824Z,5.53
2023-05-24T10:40:51.485Z,5.40
2023-05-24T10:43:18.944Z,5.18
2023-05-24T10:45:50.132Z,6.18
2023-05-24T10:48:17.853Z,7.10
2023-05-24T10:50:45.877Z,5.85
2023-05-24T10:53:15.137Z,6.55
2023-05-24T10:56:04.221Z,6.25
2023-05-24T10:58:36.958Z,6.40
2023-05-24T11:01:04.313Z,6.20
2023-05-24T11:03:34.986Z,6.10
2023-05-24T11:06:03.209Z,5.95
2023-05-24T11:08:36.115Z,5.75
2023-05-24T11:11:26.797Z,5.70
2023-05-24T11:13:58.800Z,6.20
2023-05-24T11:16:39.297Z,6.25
2023-05-24T11:19:20.129Z,5.70
2023-05-24T11:24:18.313Z,5.70
2023-05-24T11:26:46.166Z,6.07
2023-05-24T11:29:21.179Z,6.13
2023-05-24T11:31:52.725Z,5.97
2023-05-24T11:34:21.082Z,6.30
2023-05-24T11:36:52.282Z,6.35
2023-05-24T11:39:19.597Z,6.10
2023-05-24T11:41:47.869Z,6.07
2023-05-24T11:44:21.347Z,5.82
2023-05-24T11:46:48.663Z,7.18
2023-05-24T11:49:17.339Z,7.07
2023-05-24T11:51:44.764Z,5.80
2023-05-24T11:54:12.063Z,5.93
2023-05-24T11:56:39.233Z,6.40
2023-05-24T11:59:29.221Z,7.10
2023-05-24T12:02:04.484Z,7.10
2023-05-24T12:04:33.266Z,6.93
2023-05-24T12:07:01.793Z,5.82
2023-05-24T12:09:29.526Z,5.15
2023-05-24T12:11:58.707Z,6.07
2023-05-24T12:14:31.449Z,6.22
2023-05-24T12:17:00.036Z,5.00
2023-05-24T12:19:34.793Z,4.80
2023-05-24T12:22:07.858Z,4.60
2023-05-24T12:24:35.605Z,4.43
2023-05-24T12:27:07.990Z,5.03
2023-05-24T12:29:38.793Z,4.78
2023-05-24T12:32:12.459Z,7.05
2023-05-24T12:34:44.681Z,6.85
2023-05-24T12:37:13.239Z,5.95
2023-05-24T12:39:43.604Z,5.97
2023-05-24T12:42:15.112Z,7.43
2023-05-24T12:44:42.667Z,7.28
2023-05-24T12:47:10.177Z,6.50
2023-05-24T12:49:37.484Z,5.90
2023-05-24T12:52:04.995Z,13.32
2023-05-24T12:54:32.395Z,8.20
2023-05-24T12:57:00.560Z,7.68
2023-05-24T12:59:28.902Z,6.65
2023-05-24T13:01:56.746Z,6.57
2023-05-24T13:04:27.427Z,6.93
2023-05-24T13:06:55.724Z,6.05
2023-05-24T13:09:23.935Z,6.10
2023-05-24T13:11:52.688Z,6.65
2023-05-24T13:14:20.748Z,7.13
2023-05-24T13:16:48.870Z,6.78
2023-05-24T13:19:17.325Z,6.10
2023-05-24T13:21:45.144Z,7.35
2023-05-24T13:24:15.969Z,6.68
2023-05-24T13:26:44.674Z,6.53
2023-05-24T13:31:42.213Z,7.00
2023-05-24T13:34:11.394Z,9.60
2023-05-24T13:36:39.360Z,9.20
2023-05-24T13:41:42.329Z,7.28
2023-05-24T13:44:10.424Z,7.00
2023-05-24T13:46:39.078Z,7.10
2023-05-24T13:49:09.463Z,6.40
2023-05-24T13:51:38.225Z,6.68
2023-05-24T13:54:07.680Z,6.00
2023-05-24T13:56:36.060Z,5.95
2023-05-24T13:59:04.861Z,6.30
2023-05-24T14:01:36.073Z,5.68
2023-05-24T14:04:05.428Z,6.55
2023-05-24T14:06:33.733Z,6.53
2023-05-24T14:09:01.115Z,6.50
2023-05-24T14:11:31.597Z,5.85
2023-05-24T14:16:29.537Z,6.07
2023-05-24T14:18:57.606Z,6.78
2023-05-24T14:21:27.063Z,5.97
2023-05-24T14:23:54.801Z,5.93
2023-05-24T14:26:24.656Z,5.78
2023-05-24T14:28:53.760Z,6.28
2023-05-24T14:31:23.558Z,6.60
2023-05-24T14:33:50.798Z,9.40
2023-05-24T14:36:18.007Z,8.40
2023-05-24T14:38:45.362Z,8.80
2023-05-24T14:41:12.506Z,11.50
2023-05-24T14:43:40.522Z,6.93
2023-05-24T14:46:07.899Z,6.80
2023-05-24T14:48:35.583Z,6.90
2023-05-24T14:51:02.839Z,6.47
2023-05-24T14:53:29.988Z,6.75
2023-05-24T14:55:57.159Z,11.32
2023-05-24T14:58:24.400Z,7.05
2023-05-24T15:00:51.611Z,10.30
2023-05-24T15:03:19.085Z,8.32
2023-05-24T15:05:46.489Z,6.85
2023-05-24T15:08:13.796Z,7.10
2023-05-24T15:10:44.092Z,4.85
2023-05-24T15:15:38.833Z,4.43
2023-05-24T15:18:07.018Z,5.22
2023-05-24T15:20:35.846Z,4.70
2023-05-24T15:23:10.889Z,5.35
2023-05-24T15:25:38.743Z,5.18
2023-05-24T15:28:06.236Z,5.40
2023-05-24T15:30:33.572Z,5.68
2023-05-24T15:33:00.747Z,5.90
2023-05-24T15:35:27.928Z,6.75
2023-05-24T15:37:55.067Z,6.82
2023-05-24T15:40:24.452Z,6.32
2023-05-24T15:42:53.109Z,6.05
2023-05-24T15:45:21.359Z,6.72
2023-05-24T15:47:48.693Z,9.85
2023-05-24T15:50:16.680Z,8.77
2023-05-24T15:52:43.956Z,7.72
2023-05-24T15:55:11.144Z,8.23
2023-05-24T15:57:38.259Z,9.82
2023-05-24T16:00:06.441Z,10.60
2023-05-24T16:02:39.994Z,5.95
2023-05-24T16:05:07.597Z,7.75
2023-05-24T16:07:34.823Z,5.78
2023-05-24T16:10:02.039Z,6.57
2023-05-24T16:12:30.676Z,6.75
2023-05-24T16:15:00.407Z,13.60
2023-05-24T16:17:28.055Z,40.88
2023-05-24T16:19:55.397Z,37.15
2023-05-24T16:22:22.645Z,7.85
2023-05-24T16:24:49.784Z,21.67
2023-05-24T16:27:17.048Z,12.18
2023-05-24T16:29:45.750Z,7.93
2023-05-24T16:32:14.374Z,8.48
2023-05-24T16:34:55.968Z,9.02
2023-05-24T16:37:57.888Z,8.95
2023-05-24T16:40:25.038Z,9.02
2023-05-24T16:42:53.809Z,8.27
2023-05-24T16:45:21.422Z,8.75
2023-05-24T16:47:48.668Z,9.05
2023-05-24T16:50:16.074Z,8.60
2023-05-24T16:52:46.523Z,7.95
2023-05-24T16:55:16.107Z,9.88
2023-05-24T16:58:02.345Z,11.18
2023-05-24T17:00:29.663Z,7.97
2023-05-24T17:02:59.441Z,8.70
2023-05-24T17:05:26.709Z,11.00
2023-05-24T17:08:04.197Z,11.13
2023-05-24T17:11:22.589Z,11.18
2023-05-24T17:13:52.859Z,10.38
2023-05-24T17:16:23.684Z,9.77
2023-05-24T17:18:56.545Z,10.32
2023-05-24T17:21:27.889Z,9.55
2023-05-24T17:23:55.902Z,10.15
2023-05-24T17:26:24.552Z,10.60
2023-05-24T17:28:52.124Z,14.13
2023-05-24T17:31:19.328Z,10.93
2023-05-24T17:33:52.032Z,10.93
2023-05-24T17:36:25.446Z,11.98
2023-05-24T17:38:55.592Z,10.25
2023-05-24T17:41:23.083Z,9.65
2023-05-24T17:43:52.888Z,11.43
2023-05-24T17:46:20.175Z,11.43
2023-05-24T17:48:51.273Z,11.18
2023-05-24T17:51:30.679Z,12.27
2023-05-24T17:54:18.663Z,12.18
2023-05-24T17:56:47.528Z,12.02
2023-05-24T17:59:41.804Z,11.02
2023-05-24T18:02:40.873Z,11.37
2023-05-24T18:05:39.354Z,10.88
2023-05-24T18:08:06.589Z,11.93
2023-05-24T18:10:33.832Z,12.18
2023-05-24T18:13:01.148Z,10.85
2023-05-24T18:15:28.370Z,10.80
2023-05-24T18:17:56.594Z,12.00
2023-05-24T18:20:23.848Z,12.35
2023-05-24T18:22:51.097Z,13.35
2023-05-24T18:25:18.281Z,12.70
2023-05-24T18:27:45.472Z,15.70
2023-05-24T18:30:13.049Z,14.95
2023-05-24T18:32:48.879Z,13.32
2023-05-24T18:35:23.671Z,10.40
2023-05-24T18:37:50.781Z,9.52
2023-05-24T18:40:18.272Z,8.07
2023-05-24T18:42:46.574Z,10.82
2023-05-24T18:45:14.008Z,11.25
2023-05-24T18:47:41.219Z,14.20
2023-05-24T18:50:09.573Z,15.63
2023-05-24T18:52:36.870Z,18.85
2023-05-24T18:55:10.510Z,10.05
2023-05-24T18:57:38.247Z,9.60
2023-05-24T19:00:08.847Z,8.63
2023-05-24T19:02:38.880Z,8.55
2023-05-24T19:05:09.373Z,9.63
2023-05-24T19:07:37.059Z,9.43
2023-05-24T19:10:04.706Z,10.50
2023-05-24T19:12:33.172Z,10.43
2023-05-24T19:15:02.878Z,10.55
2023-05-24T19:17:35.044Z,11.32
2023-05-24T19:20:02.921Z,11.23
2023-05-24T19:22:34.101Z,11.15
2023-05-24T19:25:01.659Z,10.93
2023-05-24T19:27:31.802Z,11.23
2023-05-24T19:30:00.320Z,12.18
2023-05-24T19:32:28.040Z,11.77
2023-05-24T19:34:55.471Z,12.10
2023-05-24T19:37:22.755Z,12.15
2023-05-24T19:39:51.522Z,10.82
2023-05-24T19:42:18.883Z,12.70
2023-05-24T19:44:46.130Z,11.93
2023-05-24T19:47:13.398Z,13.48
2023-05-24T19:49:40.576Z,13.43
2023-05-24T19:52:08.340Z,11.30
2023-05-24T19:54:35.797Z,12.75
2023-05-24T19:57:03.171Z,11.77
2023-05-24T19:59:30.434Z,11.43
2023-05-24T20:01:57.862Z,11.05
2023-05-24T20:04:25.186Z,10.63
2023-05-24T20:06:53.250Z,11.43
2023-05-24T20:09:20.463Z,11.55
2023-05-24T20:11:47.615Z,12.23
2023-05-24T20:14:14.844Z,12.18
2023-05-24T20:16:42.174Z,12.60
2023-05-24T20:19:10.620Z,12.45
2023-05-24T20:21:37.997Z,13.90
2023-05-24T20:24:05.623Z,13.70
2023-05-24T20:26:35.110Z,11.70
2023-05-24T20:29:02.301Z,12.50
2023-05-24T20:31:29.850Z,12.90
2023-05-24T20:33:57.038Z,14.20
2023-05-24T20:36:24.316Z,11.00
2023-05-24T20:38:51.504Z,10.95
2023-05-24T20:41:18.681Z,12.13
2023-05-24T20:43:46.705Z,14.02
2023-05-24T20:46:14.629Z,12.43
2023-05-24T20:48:43.369Z,12.93
2023-05-24T20:51:11.185Z,12.73
2023-05-24T20:53:39.135Z,13.25
2023-05-24T20:56:07.031Z,12.32
2023-05-24T20:58:34.229Z,12.10
2023-05-24T21:01:01.494Z,12.25
2023-05-24T21:03:29.285Z,11.98
2023-05-24T21:05:56.787Z,12.68
2023-05-24T21:08:23.910Z,11.98
2023-05-24T21:10:51.062Z,12.40
2023-05-24T21:13:20.566Z,11.68
2023-05-24T21:15:48.063Z,11.20
2023-05-24T21:18:15.552Z,12.30
2023-05-24T21:20:42.894Z,11.35
2023-05-24T21:23:11.055Z,12.23
2023-05-24T21:25:38.253Z,12.45
2023-05-24T21:28:05.443Z,12.07
2023-05-24T21:30:32.614Z,12.85
2023-05-24T21:32:59.866Z,12.40
2023-05-24T21:35:27.903Z,17.35
2023-05-24T21:37:55.097Z,13.80
2023-05-24T21:40:22.338Z,22.35
2023-05-24T21:42:49.447Z,12.00
2023-05-24T21:45:16.765Z,11.10
2023-05-24T21:47:44.305Z,10.88
2023-05-24T21:50:11.590Z,10.85
2023-05-24T21:52:39.498Z,11.40
2023-05-24T21:55:06.961Z,10.73
2023-05-24T21:57:34.102Z,12.07
2023-05-24T22:00:01.950Z,11.63
2023-05-24T22:02:33.738Z,11.63
2023-05-24T22:05:01.452Z,12.90
2023-05-24T22:07:31.081Z,12.63
2023-05-24T22:09:58.789Z,12.88
2023-05-24T22:12:25.946Z,12.85
2023-05-24T22:14:53.054Z,13.93
2023-05-24T22:17:22.008Z,15.02
2023-05-24T22:19:49.334Z,12.88
2023-05-24T22:22:19.760Z,13.43
2023-05-24T22:27:17.022Z,12.93
2023-05-24T22:29:44.331Z,15.68
2023-05-24T22:32:11.605Z,14.65
2023-05-24T22:34:38.977Z,13.52
2023-05-24T22:37:07.232Z,13.00
2023-05-24T22:39:34.416Z,12.65
2023-05-24T22:42:01.809Z,13.60
2023-05-24T22:44:29.240Z,12.85
2023-05-24T22:46:56.624Z,13.98
2023-05-24T22:49:23.852Z,13.57
2023-05-24T22:51:51.336Z,13.73
2023-05-24T22:54:18.555Z,13.40
2023-05-24T22:56:46.452Z,13.75
2023-05-24T22:59:13.622Z,14.18
2023-05-24T23:01:40.872Z,14.02
2023-05-24T23:04:20.662Z,13.93
2023-05-24T23:06:49.048Z,13.88
2023-05-24T23:09:17.774Z,14.48
2023-05-24T23:11:46.236Z,14.88
2023-05-24T23:14:14.345Z,14.65
2023-05-24T23:16:45.762Z,13.43
2023-05-24T23:19:18.680Z,13.50
2023-05-24T23:21:46.480Z,14.75
2023-05-24T23:24:16.049Z,14.93
2023-05-24T23:26:43.838Z,14.73
2023-05-24T23:29:11.439Z,15.40
2023-05-24T23:31:39.761Z,17.17
2023-05-24T23:34:07.414Z,16.48
2023-05-24T23:36:34.659Z,15.02
2023-05-24T23:39:01.775Z,14.93
2023-05-24T23:41:28.909Z,15.50
2023-05-24T23:43:56.034Z,14.25
2023-05-24T23:46:23.435Z,15.23
2023-05-24T23:48:50.672Z,13.80
2023-05-24T23:51:19.604Z,14.20
2023-05-24T23:53:46.793Z,15.18
2023-05-24T23:56:13.931Z,14.68
2023-05-24T23:58:42.061Z,14.18
